sensor_id;sensor_type;location;lat;lon;timestamp;P1;durP1;ratioP1;P2;durP2;ratioP2
12373;SDS011;6251;51.762;8.660;2022-12-11T05:10:17;60.97;;;23.53;;
12373;SDS011;6251;51.762;8.660;2022-12-11T05:20:23;56.17;;;23.60;;
12373;SDS011;6251;51.762;8.660;2022-12-11T05:30:24;58.53;;;23.73;;
12373;SDS011;6251;51.762;8.660;2022-12-11T05:40:25;55.83;;;23.47;;
12373;SDS011;6251;51.762;8.660;2022-12-11T05:50:26;55.23;;;20.43;;
12373;SDS011;6251;51.762;8.660;2022-12-11T06:00:26;62.17;;;23.03;;
12373;SDS011;6251;51.762;8.660;2022-12-11T06:10:27;56.10;;;23.27;;
12373;SDS011;6251;51.762;8.660;2022-12-11T06:20:29;64.37;;;24.37;;
12373;SDS011;6251;51.762;8.660;2022-12-11T06:30:32;64.50;;;23.37;;
12373;SDS011;6251;51.762;8.660;2022-12-11T06:40:32;68.13;;;25.00;;
12373;SDS011;6251;51.762;8.660;2022-12-11T06:50:33;63.80;;;23.33;;
12373;SDS011;6251;51.762;8.660;2022-12-11T07:00:34;71.53;;;25.03;;
12373;SDS011;6251;51.762;8.660;2022-12-11T07:10:36;60.07;;;22.27;;
12373;SDS011;6251;51.762;8.660;2022-12-11T07:20:37;66.43;;;23.87;;
12373;SDS011;6251;51.762;8.660;2022-12-11T07:30:37;63.47;;;23.33;;
12373;SDS011;6251;51.762;8.660;2022-12-11T07:40:38;59.47;;;22.60;;
12373;SDS011;6251;51.762;8.660;2022-12-11T07:50:39;76.20;;;24.43;;
12373;SDS011;6251;51.762;8.660;2022-12-11T08:00:39;72.30;;;24.10;;
12373;SDS011;6251;51.762;8.660;2022-12-11T08:10:40;68.63;;;24.73;;
12373;SDS011;6251;51.762;8.660;2022-12-11T08:20:41;65.07;;;22.90;;
12373;SDS011;6251;51.762;8.660;2022-12-11T08:30:41;67.10;;;23.20;;
12373;SDS011;6251;51.762;8.660;2022-12-11T08:40:42;57.80;;;22.07;;
12373;SDS011;6251;51.762;8.660;2022-12-11T08:50:42;74.10;;;24.67;;
12373;SDS011;6251;51.762;8.660;2022-12-11T09:00:43;74.23;;;25.10;;
12373;SDS011;6251;51.762;8.660;2022-12-11T09:10:44;66.13;;;23.17;;
12373;SDS011;6251;51.762;8.660;2022-12-11T09:20:44;60.27;;;22.43;;
12373;SDS011;6251;51.762;8.660;2022-12-11T09:30:45;57.97;;;22.13;;
12373;SDS011;6251;51.762;8.660;2022-12-11T09:40:45;57.03;;;19.73;;
12373;SDS011;6251;51.762;8.660;2022-12-11T09:50:47;50.50;;;18.80;;
12373;SDS011;6251;51.762;8.660;2022-12-11T10:00:55;39.53;;;15.37;;
12373;SDS011;6251;51.762;8.660;2022-12-11T10:21:48;31.70;;;13.47;;
12373;SDS011;6251;51.762;8.660;2022-12-11T10:31:55;33.77;;;15.43;;
12373;SDS011;6251;51.762;8.660;2022-12-11T10:41:57;32.00;;;15.33;;
12373;SDS011;6251;51.762;8.660;2022-12-11T10:51:58;30.57;;;15.40;;
12373;SDS011;6251;51.762;8.660;2022-12-11T11:02:02;31.17;;;13.90;;
12373;SDS011;6251;51.762;8.660;2022-12-11T11:12:15;29.17;;;14.20;;
12373;SDS011;6251;51.762;8.660;2022-12-11T11:22:23;28.20;;;14.43;;
12373;SDS011;6251;51.762;8.660;2022-12-11T11:32:30;26.20;;;14.00;;
12373;SDS011;6251;51.762;8.660;2022-12-11T11:42:42;30.20;;;15.20;;
12373;SDS011;6251;51.762;8.660;2022-12-11T11:52:54;28.77;;;13.80;;
12373;SDS011;6251;51.762;8.660;2022-12-11T12:03:02;24.60;;;12.37;;
12373;SDS011;6251;51.762;8.660;2022-12-11T12:44:14;26.60;;;15.20;;
12373;SDS011;6251;51.762;8.660;2022-12-11T12:54:17;24.03;;;11.90;;
12373;SDS011;6251;51.762;8.660;2022-12-11T13:04:26;24.40;;;12.87;;
12373;SDS011;6251;51.762;8.660;2022-12-11T13:14:31;25.63;;;13.17;;
12373;SDS011;6251;51.762;8.660;2022-12-11T13:24:32;24.60;;;12.33;;
12373;SDS011;6251;51.762;8.660;2022-12-11T13:34:49;21.47;;;11.30;;
12373;SDS011;6251;51.762;8.660;2022-12-11T13:44:58;23.57;;;13.60;;
12373;SDS011;6251;51.762;8.660;2022-12-11T13:54:59;23.70;;;12.83;;
12373;SDS011;6251;51.762;8.660;2022-12-11T14:05:09;26.00;;;12.87;;
12373;SDS011;6251;51.762;8.660;2022-12-11T14:15:12;22.87;;;11.97;;
12373;SDS011;6251;51.762;8.660;2022-12-11T14:25:19;25.07;;;12.20;;
12373;SDS011;6251;51.762;8.660;2022-12-11T14:35:26;26.43;;;13.27;;
12373;SDS011;6251;51.762;8.660;2022-12-11T14:45:32;28.43;;;13.27;;
12373;SDS011;6251;51.762;8.660;2022-12-11T14:55:35;26.53;;;13.90;;
12373;SDS011;6251;51.762;8.660;2022-12-11T15:05:48;30.93;;;15.40;;
12373;SDS011;6251;51.762;8.660;2022-12-11T15:15:50;25.00;;;12.83;;
12373;SDS011;6251;51.762;8.660;2022-12-11T15:25:53;27.87;;;13.00;;
12373;SDS011;6251;51.762;8.660;2022-12-11T15:35:58;32.80;;;16.20;;
12373;SDS011;6251;51.762;8.660;2022-12-11T15:46:00;26.60;;;12.60;;
12373;SDS011;6251;51.762;8.660;2022-12-11T15:56:01;28.87;;;14.37;;
12373;SDS011;6251;51.762;8.660;2022-12-11T16:06:02;27.77;;;14.00;;
12373;SDS011;6251;51.762;8.660;2022-12-11T16:16:03;26.87;;;13.93;;
12373;SDS011;6251;51.762;8.660;2022-12-11T16:26:05;23.33;;;12.63;;
12373;SDS011;6251;51.762;8.660;2022-12-11T16:36:15;26.03;;;13.67;;
12373;SDS011;6251;51.762;8.660;2022-12-11T16:46:17;26.80;;;13.90;;
12373;SDS011;6251;51.762;8.660;2022-12-11T16:56:19;30.90;;;15.33;;
12373;SDS011;6251;51.762;8.660;2022-12-11T17:06:20;34.00;;;17.00;;
12373;SDS011;6251;51.762;8.660;2022-12-11T17:16:21;37.63;;;16.87;;
12373;SDS011;6251;51.762;8.660;2022-12-11T17:26:24;31.37;;;17.00;;
12373;SDS011;6251;51.762;8.660;2022-12-11T17:36:27;32.23;;;17.53;;
12373;SDS011;6251;51.762;8.660;2022-12-11T17:46:28;30.40;;;14.63;;
12373;SDS011;6251;51.762;8.660;2022-12-11T17:56:28;32.17;;;16.03;;
12373;SDS011;6251;51.762;8.660;2022-12-11T18:06:29;32.20;;;16.43;;
12373;SDS011;6251;51.762;8.660;2022-12-11T18:16:31;34.70;;;17.50;;
12373;SDS011;6251;51.762;8.660;2022-12-11T18:26:35;27.40;;;14.67;;
12373;SDS011;6251;51.762;8.660;2022-12-11T18:36:48;34.43;;;16.53;;
12373;SDS011;6251;51.762;8.660;2022-12-11T18:46:49;33.87;;;15.50;;
12373;SDS011;6251;51.762;8.660;2022-12-11T18:56:49;31.27;;;16.07;;
12373;SDS011;6251;51.762;8.660;2022-12-11T19:06:50;37.87;;;17.63;;
12373;SDS011;6251;51.762;8.660;2022-12-11T19:16:51;38.23;;;18.67;;
12373;SDS011;6251;51.762;8.660;2022-12-11T19:26:54;34.93;;;18.83;;
12373;SDS011;6251;51.762;8.660;2022-12-11T19:36:55;37.17;;;19.10;;
12373;SDS011;6251;51.762;8.660;2022-12-11T19:46:55;41.30;;;20.63;;
12373;SDS011;6251;51.762;8.660;2022-12-11T19:56:56;32.73;;;16.87;;
12373;SDS011;6251;51.762;8.660;2022-12-11T20:06:57;38.07;;;18.00;;
12373;SDS011;6251;51.762;8.660;2022-12-11T20:16:57;36.03;;;18.30;;
12373;SDS011;6251;51.762;8.660;2022-12-11T20:26:58;34.03;;;17.73;;
12373;SDS011;6251;51.762;8.660;2022-12-11T20:36:59;34.95;;;18.12;;
12373;SDS011;6251;51.762;8.660;2022-12-11T20:47:00;37.07;;;17.73;;
12373;SDS011;6251;51.762;8.660;2022-12-11T20:57:00;39.13;;;19.20;;
12373;SDS011;6251;51.762;8.660;2022-12-11T21:07:01;38.03;;;20.37;;
12373;SDS011;6251;51.762;8.660;2022-12-11T21:17:02;38.60;;;19.50;;
12373;SDS011;6251;51.762;8.660;2022-12-11T21:27:02;42.43;;;20.27;;
12373;SDS011;6251;51.762;8.660;2022-12-11T21:37:08;39.93;;;19.03;;
12373;SDS011;6251;51.762;8.660;2022-12-11T21:47:09;37.03;;;18.13;;
12373;SDS011;6251;51.762;8.660;2022-12-11T21:57:09;39.20;;;18.20;;
12373;SDS011;6251;51.762;8.660;2022-12-11T22:07:10;36.27;;;17.70;;
